sensor_id;sensor_type;location;lat;lon;timestamp;P1;durP1;ratioP1;P2;durP2;ratioP2
934;SDS011;454;53.254;10.400;2023-07-31T04:01:57;3.40;;;2.10;;
934;SDS011;454;53.254;10.400;2023-07-31T04:04:24;2.73;;;2.63;;
934;SDS011;454;53.254;10.400;2023-07-31T04:06:51;1.53;;;1.53;;
934;SDS011;454;53.254;10.400;2023-07-31T04:09:17;1.73;;;1.73;;
934;SDS011;454;53.254;10.400;2023-07-31T04:11:44;2.33;;;2.23;;
934;SDS011;454;53.254;10.400;2023-07-31T04:14:11;1.57;;;1.53;;
934;SDS011;454;53.254;10.400;2023-07-31T04:16:37;2.60;;;2.50;;
934;SDS011;454;53.254;10.400;2023-07-31T04:19:05;4.63;;;2.40;;
934;SDS011;454;53.254;10.400;2023-07-31T04:21:32;2.67;;;2.30;;
934;SDS011;454;53.254;10.400;2023-07-31T04:23:59;2.13;;;2.03;;
934;SDS011;454;53.254;10.400;2023-07-31T04:26:25;2.90;;;2.30;;
934;SDS011;454;53.254;10.400;2023-07-31T04:28:52;2.63;;;2.53;;
934;SDS011;454;53.254;10.400;2023-07-31T04:31:19;4.20;;;3.50;;
934;SDS011;454;53.254;10.400;2023-07-31T04:33:45;2.60;;;2.50;;
934;SDS011;454;53.254;10.400;2023-07-31T04:36:13;2.03;;;2.03;;
934;SDS011;454;53.254;10.400;2023-07-31T04:38:40;2.03;;;1.93;;
934;SDS011;454;53.254;10.400;2023-07-31T04:41:07;2.10;;;2.00;;
934;SDS011;454;53.254;10.400;2023-07-31T04:43:33;2.53;;;2.30;;
934;SDS011;454;53.254;10.400;2023-07-31T04:46:00;1.60;;;1.60;;
934;SDS011;454;53.254;10.400;2023-07-31T04:48:27;1.77;;;1.70;;
934;SDS011;454;53.254;10.400;2023-07-31T04:50:53;1.63;;;1.53;;
934;SDS011;454;53.254;10.400;2023-07-31T04:53:21;1.83;;;1.73;;
934;SDS011;454;53.254;10.400;2023-07-31T04:55:48;1.90;;;1.90;;
934;SDS011;454;53.254;10.400;2023-07-31T04:58:15;2.30;;;2.17;;
934;SDS011;454;53.254;10.400;2023-07-31T05:00:41;1.37;;;1.37;;
934;SDS011;454;53.254;10.400;2023-07-31T05:03:08;2.40;;;1.70;;
934;SDS011;454;53.254;10.400;2023-07-31T05:05:35;2.73;;;2.63;;
934;SDS011;454;53.254;10.400;2023-07-31T05:08:02;2.43;;;2.33;;
934;SDS011;454;53.254;10.400;2023-07-31T05:10:30;1.07;;;1.07;;
934;SDS011;454;53.254;10.400;2023-07-31T05:12:57;1.97;;;1.97;;
934;SDS011;454;53.254;10.400;2023-07-31T05:15:24;1.70;;;1.70;;
934;SDS011;454;53.254;10.400;2023-07-31T05:17:50;2.30;;;2.13;;
934;SDS011;454;53.254;10.400;2023-07-31T05:20:17;3.47;;;3.37;;
934;SDS011;454;53.254;10.400;2023-07-31T05:22:44;1.83;;;1.73;;
934;SDS011;454;53.254;10.400;2023-07-31T05:25:10;1.73;;;1.67;;
934;SDS011;454;53.254;10.400;2023-07-31T05:27:38;6.83;;;1.83;;
934;SDS011;454;53.254;10.400;2023-07-31T05:30:05;1.47;;;1.47;;
934;SDS011;454;53.254;10.400;2023-07-31T05:32:33;1.17;;;1.17;;
934;SDS011;454;53.254;10.400;2023-07-31T05:35:00;1.87;;;1.77;;
934;SDS011;454;53.254;10.400;2023-07-31T05:37:26;1.63;;;1.53;;
934;SDS011;454;53.254;10.400;2023-07-31T05:39:53;2.40;;;2.30;;
934;SDS011;454;53.254;10.400;2023-07-31T05:42:20;2.57;;;2.37;;
934;SDS011;454;53.254;10.400;2023-07-31T05:44:48;2.03;;;1.93;;
934;SDS011;454;53.254;10.400;2023-07-31T05:47:17;1.30;;;1.30;;
934;SDS011;454;53.254;10.400;2023-07-31T05:49:44;1.90;;;1.90;;
934;SDS011;454;53.254;10.400;2023-07-31T05:52:11;1.43;;;1.43;;
934;SDS011;454;53.254;10.400;2023-07-31T05:54:37;1.33;;;1.33;;
934;SDS011;454;53.254;10.400;2023-07-31T05:57:04;1.60;;;1.60;;
934;SDS011;454;53.254;10.400;2023-07-31T05:59:31;2.30;;;2.30;;
934;SDS011;454;53.254;10.400;2023-07-31T06:01:59;1.50;;;1.50;;
934;SDS011;454;53.254;10.400;2023-07-31T06:04:26;2.27;;;2.17;;
934;SDS011;454;53.254;10.400;2023-07-31T06:06:53;1.73;;;1.73;;
934;SDS011;454;53.254;10.400;2023-07-31T06:09:20;1.10;;;1.10;;
934;SDS011;454;53.254;10.400;2023-07-31T06:11:47;1.20;;;1.20;;
934;SDS011;454;53.254;10.400;2023-07-31T06:14:14;1.50;;;1.50;;
934;SDS011;454;53.254;10.400;2023-07-31T06:16:40;1.60;;;1.50;;
934;SDS011;454;53.254;10.400;2023-07-31T06:19:10;3.07;;;2.13;;
934;SDS011;454;53.254;10.400;2023-07-31T06:21:37;1.50;;;1.43;;
934;SDS011;454;53.254;10.400;2023-07-31T06:24:07;1.50;;;1.50;;
934;SDS011;454;53.254;10.400;2023-07-31T06:26:34;1.57;;;1.57;;
934;SDS011;454;53.254;10.400;2023-07-31T06:29:01;0.70;;;0.70;;
934;SDS011;454;53.254;10.400;2023-07-31T06:31:28;0.90;;;0.90;;
934;SDS011;454;53.254;10.400;2023-07-31T06:33:55;2.20;;;2.20;;
934;SDS011;454;53.254;10.400;2023-07-31T06:36:23;0.90;;;0.90;;
934;SDS011;454;53.254;10.400;2023-07-31T06:38:49;1.27;;;1.27;;
934;SDS011;454;53.254;10.400;2023-07-31T06:41:16;0.97;;;0.97;;
934;SDS011;454;53.254;10.400;2023-07-31T06:43:43;0.80;;;0.80;;
934;SDS011;454;53.254;10.400;2023-07-31T06:46:09;0.80;;;0.80;;
934;SDS011;454;53.254;10.400;2023-07-31T06:48:36;0.90;;;0.90;;
934;SDS011;454;53.254;10.400;2023-07-31T06:51:03;1.20;;;1.10;;
934;SDS011;454;53.254;10.400;2023-07-31T06:53:31;0.50;;;0.50;;
934;SDS011;454;53.254;10.400;2023-07-31T06:55:58;0.90;;;0.90;;
934;SDS011;454;53.254;10.400;2023-07-31T06:58:24;0.80;;;0.80;;
934;SDS011;454;53.254;10.400;2023-07-31T07:00:51;0.80;;;0.80;;
934;SDS011;454;53.254;10.400;2023-07-31T07:03:18;0.90;;;0.90;;
934;SDS011;454;53.254;10.400;2023-07-31T07:05:45;0.90;;;0.90;;
934;SDS011;454;53.254;10.400;2023-07-31T07:08:12;0.67;;;0.67;;
934;SDS011;454;53.254;10.400;2023-07-31T07:10:40;0.30;;;0.30;;
934;SDS011;454;53.254;10.400;2023-07-31T07:13:08;0.50;;;0.50;;
934;SDS011;454;53.254;10.400;2023-07-31T07:15:34;0.90;;;0.90;;
934;SDS011;454;53.254;10.400;2023-07-31T07:18:01;0.60;;;0.60;;
934;SDS011;454;53.254;10.400;2023-07-31T07:20:28;0.50;;;0.50;;
934;SDS011;454;53.254;10.400;2023-07-31T07:22:55;0.50;;;0.50;;
934;SDS011;454;53.254;10.400;2023-07-31T07:25:21;1.90;;;0.50;;
934;SDS011;454;53.254;10.400;2023-07-31T07:27:49;0.77;;;0.77;;
934;SDS011;454;53.254;10.400;2023-07-31T07:30:16;0.50;;;0.50;;
934;SDS011;454;53.254;10.400;2023-07-31T07:32:43;0.33;;;0.33;;
934;SDS011;454;53.254;10.400;2023-07-31T07:35:10;0.40;;;0.40;;
934;SDS011;454;53.254;10.400;2023-07-31T07:37:36;0.70;;;0.70;;
934;SDS011;454;53.254;10.400;2023-07-31T07:40:03;0.80;;;0.80;;
934;SDS011;454;53.254;10.400;2023-07-31T07:42:31;0.50;;;0.50;;
934;SDS011;454;53.254;10.400;2023-07-31T07:44:59;0.47;;;0.47;;
934;SDS011;454;53.254;10.400;2023-07-31T07:47:25;1.30;;;0.50;;
934;SDS011;454;53.254;10.400;2023-07-31T07:49:52;0.70;;;0.70;;
934;SDS011;454;53.254;10.400;2023-07-31T07:52:19;0.47;;;0.47;;
934;SDS011;454;53.254;10.400;2023-07-31T08:03:59;0.30;;;0.30;;
934;SDS011;454;53.254;10.400;2023-07-31T08:06:26;0.40;;;0.40;;
934;SDS011;454;53.254;10.400;2023-07-31T08:08:54;0.30;;;0.30;;
934;SDS011;454;53.254;10.400;2023-07-31T08:11:21;0.30;;;0.30;;
934;SDS011;454;53.254;10.400;2023-07-31T08:13:48;0.50;;;0.50;;
934;SDS011;454;53.254;10.400;2023-07-31T08:16:15;0.40;;;0.37;;
934;SDS011;454;53.254;10.400;2023-07-31T08:18:42;0.30;;;0.20;;
934;SDS011;454;53.254;10.400;2023-07-31T08:26:15;0.40;;;0.40;;
934;SDS011;454;53.254;10.400;2023-07-31T08:28:42;0.30;;;0.30;;
934;SDS011;454;53.254;10.400;2023-07-31T08:31:09;0.53;;;0.53;;
934;SDS011;454;53.254;10.400;2023-07-31T08:33:36;0.50;;;0.50;;
934;SDS011;454;53.254;10.400;2023-07-31T08:36:03;0.30;;;0.30;;
934;SDS011;454;53.254;10.400;2023-07-31T08:38:30;0.40;;;0.40;;
934;SDS011;454;53.254;10.400;2023-07-31T08:41:00;0.30;;;0.30;;
934;SDS011;454;53.254;10.400;2023-07-31T08:43:30;0.30;;;0.30;;
934;SDS011;454;53.254;10.400;2023-07-31T08:45:58;0.27;;;0.27;;
934;SDS011;454;53.254;10.400;2023-07-31T08:48:25;0.30;;;0.30;;
934;SDS011;454;53.254;10.400;2023-07-31T08:50:53;0.37;;;0.37;;
934;SDS011;454;53.254;10.400;2023-07-31T08:53:20;0.53;;;0.53;;
934;SDS011;454;53.254;10.400;2023-07-31T08:55:48;0.50;;;0.50;;
934;SDS011;454;53.254;10.400;2023-07-31T08:58:15;0.20;;;0.20;;
934;SDS011;454;53.254;10.400;2023-07-31T09:00:46;0.20;;;0.20;;
934;SDS011;454;53.254;10.400;2023-07-31T09:03:13;0.30;;;0.30;;
934;SDS011;454;53.254;10.400;2023-07-31T09:05:42;0.30;;;0.30;;
934;SDS011;454;53.254;10.400;2023-07-31T09:08:10;0.20;;;0.20;;
934;SDS011;454;53.254;10.400;2023-07-31T09:10:39;0.50;;;0.47;;
934;SDS011;454;53.254;10.400;2023-07-31T09:13:07;0.20;;;0.20;;
934;SDS011;454;53.254;10.400;2023-07-31T09:15:35;0.40;;;0.40;;
934;SDS011;454;53.254;10.400;2023-07-31T09:18:04;0.20;;;0.20;;
934;SDS011;454;53.254;10.400;2023-07-31T09:20:31;0.20;;;0.20;;
934;SDS011;454;53.254;10.400;2023-07-31T09:23:04;0.23;;;0.23;;
934;SDS011;454;53.254;10.400;2023-07-31T09:25:33;0.30;;;0.30;;
934;SDS011;454;53.254;10.400;2023-07-31T09:28:01;1.13;;;0.40;;
934;SDS011;454;53.254;10.400;2023-07-31T09:30:29;0.20;;;0.20;;
934;SDS011;454;53.254;10.400;2023-07-31T09:33:00;0.30;;;0.30;;
934;SDS011;454;53.254;10.400;2023-07-31T09:35:30;0.60;;;0.60;;
934;SDS011;454;53.254;10.400;2023-07-31T09:37:59;0.43;;;0.43;;
934;SDS011;454;53.254;10.400;2023-07-31T09:40:27;1.00;;;1.00;;
934;SDS011;454;53.254;10.400;2023-07-31T09:42:58;2.40;;;1.00;;
934;SDS011;454;53.254;10.400;2023-07-31T09:45:26;0.80;;;0.80;;
934;SDS011;454;53.254;10.400;2023-07-31T09:47:53;1.10;;;1.10;;
934;SDS011;454;53.254;10.400;2023-07-31T09:50:21;3.50;;;1.30;;
934;SDS011;454;53.254;10.400;2023-07-31T09:52:50;1.20;;;1.20;;
934;SDS011;454;53.254;10.400;2023-07-31T09:55:18;2.10;;;2.00;;
934;SDS011;454;53.254;10.400;2023-07-31T09:57:46;1.03;;;1.03;;
934;SDS011;454;53.254;10.400;2023-07-31T10:00:14;2.50;;;2.40;;
934;SDS011;454;53.254;10.400;2023-07-31T10:02:43;1.70;;;1.60;;
934;SDS011;454;53.254;10.400;2023-07-31T10:05:12;3.83;;;1.93;;
934;SDS011;454;53.254;10.400;2023-07-31T10:07:40;5.60;;;2.20;;
934;SDS011;454;53.254;10.400;2023-07-31T10:10:10;2.23;;;2.23;;
934;SDS011;454;53.254;10.400;2023-07-31T10:12:38;2.33;;;2.13;;
934;SDS011;454;53.254;10.400;2023-07-31T10:15:05;2.17;;;2.00;;
934;SDS011;454;53.254;10.400;2023-07-31T10:17:33;4.30;;;2.60;;
934;SDS011;454;53.254;10.400;2023-07-31T10:20:01;4.03;;;3.53;;
934;SDS011;454;53.254;10.400;2023-07-31T10:22:29;2.87;;;2.50;;
934;SDS011;454;53.254;10.400;2023-07-31T10:24:57;2.87;;;2.40;;
934;SDS011;454;53.254;10.400;2023-07-31T10:27:26;3.00;;;2.63;;
934;SDS011;454;53.254;10.400;2023-07-31T10:29:54;2.30;;;2.07;;
934;SDS011;454;53.254;10.400;2023-07-31T10:32:22;1.97;;;1.97;;
934;SDS011;454;53.254;10.400;2023-07-31T10:34:51;5.47;;;2.77;;
934;SDS011;454;53.254;10.400;2023-07-31T10:37:25;2.93;;;2.73;;
934;SDS011;454;53.254;10.400;2023-07-31T10:39:57;3.00;;;2.80;;
934;SDS011;454;53.254;10.400;2023-07-31T10:42:33;2.63;;;2.43;;
934;SDS011;454;53.254;10.400;2023-07-31T10:45:02;1.50;;;1.40;;
934;SDS011;454;53.254;10.400;2023-07-31T10:47:30;2.40;;;2.30;;
934;SDS011;454;53.254;10.400;2023-07-31T10:50:13;4.57;;;4.37;;
934;SDS011;454;53.254;10.400;2023-07-31T10:52:44;2.37;;;2.20;;
934;SDS011;454;53.254;10.400;2023-07-31T10:55:16;3.30;;;3.00;;
934;SDS011;454;53.254;10.400;2023-07-31T10:57:51;6.93;;;2.30;;
934;SDS011;454;53.254;10.400;2023-07-31T11:00:19;4.33;;;2.37;;
934;SDS011;454;53.254;10.400;2023-07-31T11:02:57;2.13;;;2.00;;
934;SDS011;454;53.254;10.400;2023-07-31T11:05:40;2.63;;;1.97;;
934;SDS011;454;53.254;10.400;2023-07-31T11:08:15;3.60;;;2.13;;
934;SDS011;454;53.254;10.400;2023-07-31T11:10:44;2.47;;;2.00;;
934;SDS011;454;53.254;10.400;2023-07-31T11:13:13;2.07;;;1.97;;
934;SDS011;454;53.254;10.400;2023-07-31T11:15:40;2.63;;;2.47;;
934;SDS011;454;53.254;10.400;2023-07-31T11:18:07;2.53;;;2.33;;
934;SDS011;454;53.254;10.400;2023-07-31T11:20:35;1.63;;;1.53;;
934;SDS011;454;53.254;10.400;2023-07-31T11:23:03;4.63;;;1.50;;
934;SDS011;454;53.254;10.400;2023-07-31T11:25:32;2.00;;;2.00;;
934;SDS011;454;53.254;10.400;2023-07-31T11:28:02;4.00;;;2.00;;
934;SDS011;454;53.254;10.400;2023-07-31T11:30:31;5.23;;;2.20;;
934;SDS011;454;53.254;10.400;2023-07-31T11:32:59;2.23;;;1.70;;
934;SDS011;454;53.254;10.400;2023-07-31T11:35:28;1.20;;;1.20;;
934;SDS011;454;53.254;10.400;2023-07-31T11:37:55;2.23;;;1.93;;
934;SDS011;454;53.254;10.400;2023-07-31T11:40:21;1.73;;;1.70;;
934;SDS011;454;53.254;10.400;2023-07-31T11:42:53;2.50;;;1.27;;
934;SDS011;454;53.254;10.400;2023-07-31T11:45:20;1.47;;;1.47;;
934;SDS011;454;53.254;10.400;2023-07-31T11:47:51;1.13;;;1.13;;
934;SDS011;454;53.254;10.400;2023-07-31T11:50:19;1.40;;;1.30;;
934;SDS011;454;53.254;10.400;2023-07-31T11:52:46;1.13;;;0.93;;
934;SDS011;454;53.254;10.400;2023-07-31T11:55:16;1.40;;;1.30;;
934;SDS011;454;53.254;10.400;2023-07-31T11:57:43;0.70;;;0.70;;
934;SDS011;454;53.254;10.400;2023-07-31T12:00:11;0.77;;;0.77;;
934;SDS011;454;53.254;10.400;2023-07-31T12:02:39;0.93;;;0.93;;
934;SDS011;454;53.254;10.400;2023-07-31T12:05:11;1.23;;;1.00;;
934;SDS011;454;53.254;10.400;2023-07-31T12:07:48;0.77;;;0.77;;
934;SDS011;454;53.254;10.400;2023-07-31T12:10:23;0.80;;;0.80;;
934;SDS011;454;53.254;10.400;2023-07-31T12:12:57;1.00;;;1.00;;
934;SDS011;454;53.254;10.400;2023-07-31T12:15:35;0.60;;;0.60;;
934;SDS011;454;53.254;10.400;2023-07-31T12:18:06;0.40;;;0.40;;
934;SDS011;454;53.254;10.400;2023-07-31T12:20:35;0.77;;;0.77;;
934;SDS011;454;53.254;10.400;2023-07-31T12:23:06;0.80;;;0.80;;
934;SDS011;454;53.254;10.400;2023-07-31T12:25:33;1.03;;;1.03;;
934;SDS011;454;53.254;10.400;2023-07-31T12:28:04;0.93;;;0.93;;
934;SDS011;454;53.254;10.400;2023-07-31T12:30:36;0.47;;;0.47;;
934;SDS011;454;53.254;10.400;2023-07-31T12:33:03;1.03;;;0.93;;
934;SDS011;454;53.254;10.400;2023-07-31T12:35:36;0.97;;;0.97;;
934;SDS011;454;53.254;10.400;2023-07-31T12:38:03;0.83;;;0.83;;
934;SDS011;454;53.254;10.400;2023-07-31T12:40:30;0.60;;;0.60;;
934;SDS011;454;53.254;10.400;2023-07-31T12:42:56;0.70;;;0.70;;
934;SDS011;454;53.254;10.400;2023-07-31T12:45:23;0.93;;;0.77;;
934;SDS011;454;53.254;10.400;2023-07-31T12:47:50;1.27;;;1.27;;
934;SDS011;454;53.254;10.400;2023-07-31T12:50:17;0.83;;;0.83;;
934;SDS011;454;53.254;10.400;2023-07-31T12:52:45;0.93;;;0.93;;
934;SDS011;454;53.254;10.400;2023-07-31T12:55:11;0.63;;;0.63;;
934;SDS011;454;53.254;10.400;2023-07-31T12:57:39;0.70;;;0.70;;
934;SDS011;454;53.254;10.400;2023-07-31T13:00:06;1.00;;;1.00;;
934;SDS011;454;53.254;10.400;2023-07-31T13:02:33;0.87;;;0.87;;
934;SDS011;454;53.254;10.400;2023-07-31T13:05:00;1.03;;;1.00;;
934;SDS011;454;53.254;10.400;2023-07-31T13:07:27;0.80;;;0.80;;
934;SDS011;454;53.254;10.400;2023-07-31T13:09:55;0.63;;;0.63;;
934;SDS011;454;53.254;10.400;2023-07-31T13:12:21;0.70;;;0.70;;
934;SDS011;454;53.254;10.400;2023-07-31T13:14:48;0.77;;;0.77;;
934;SDS011;454;53.254;10.400;2023-07-31T13:17:15;0.67;;;0.67;;
934;SDS011;454;53.254;10.400;2023-07-31T13:19:42;1.10;;;1.10;;
934;SDS011;454;53.254;10.400;2023-07-31T13:22:09;1.00;;;1.00;;
934;SDS011;454;53.254;10.400;2023-07-31T13:24:35;0.90;;;0.90;;
934;SDS011;454;53.254;10.400;2023-07-31T13:27:03;0.60;;;0.60;;
934;SDS011;454;53.254;10.400;2023-07-31T13:29:30;0.60;;;0.60;;
934;SDS011;454;53.254;10.400;2023-07-31T13:31:57;1.00;;;1.00;;
934;SDS011;454;53.254;10.400;2023-07-31T13:34:24;0.77;;;0.77;;
934;SDS011;454;53.254;10.400;2023-07-31T13:36:53;0.67;;;0.67;;
934;SDS011;454;53.254;10.400;2023-07-31T13:39:21;1.10;;;1.10;;
934;SDS011;454;53.254;10.400;2023-07-31T13:41:47;0.43;;;0.43;;
934;SDS011;454;53.254;10.400;2023-07-31T13:44:15;0.60;;;0.60;;
934;SDS011;454;53.254;10.400;2023-07-31T13:46:42;0.43;;;0.43;;
934;SDS011;454;53.254;10.400;2023-07-31T13:49:09;0.73;;;0.73;;
934;SDS011;454;53.254;10.400;2023-07-31T13:51:35;2.17;;;0.73;;
934;SDS011;454;53.254;10.400;2023-07-31T13:54:04;0.77;;;0.77;;
934;SDS011;454;53.254;10.400;2023-07-31T13:56:31;0.67;;;0.67;;
934;SDS011;454;53.254;10.400;2023-07-31T13:58:58;0.90;;;0.83;;
934;SDS011;454;53.254;10.400;2023-07-31T14:01:27;0.53;;;0.53;;
934;SDS011;454;53.254;10.400;2023-07-31T14:03:54;1.80;;;1.70;;
934;SDS011;454;53.254;10.400;2023-07-31T14:06:20;0.40;;;0.40;;
934;SDS011;454;53.254;10.400;2023-07-31T14:08:47;0.33;;;0.33;;
934;SDS011;454;53.254;10.400;2023-07-31T14:11:14;0.40;;;0.40;;
934;SDS011;454;53.254;10.400;2023-07-31T14:13:41;0.73;;;0.73;;
934;SDS011;454;53.254;10.400;2023-07-31T14:16:07;0.30;;;0.30;;
934;SDS011;454;53.254;10.400;2023-07-31T14:18:35;0.50;;;0.50;;
934;SDS011;454;53.254;10.400;2023-07-31T14:21:02;0.80;;;0.80;;
934;SDS011;454;53.254;10.400;2023-07-31T14:23:29;0.57;;;0.57;;
934;SDS011;454;53.254;10.400;2023-07-31T14:25:56;1.23;;;0.80;;
934;SDS011;454;53.254;10.400;2023-07-31T14:28:22;0.50;;;0.40;;
934;SDS011;454;53.254;10.400;2023-07-31T14:30:49;0.40;;;0.40;;
934;SDS011;454;53.254;10.400;2023-07-31T14:33:16;1.13;;;1.13;;
934;SDS011;454;53.254;10.400;2023-07-31T14:35:44;0.80;;;0.80;;
934;SDS011;454;53.254;10.400;2023-07-31T14:38:11;1.60;;;0.90;;
934;SDS011;454;53.254;10.400;2023-07-31T14:40:37;0.80;;;0.80;;
934;SDS011;454;53.254;10.400;2023-07-31T14:43:04;1.30;;;1.30;;
934;SDS011;454;53.254;10.400;2023-07-31T14:45:31;1.17;;;1.17;;
934;SDS011;454;53.254;10.400;2023-07-31T14:47:57;0.83;;;0.83;;
934;SDS011;454;53.254;10.400;2023-07-31T14:50:24;1.13;;;1.13;;
934;SDS011;454;53.254;10.400;2023-07-31T14:52:53;0.60;;;0.60;;
934;SDS011;454;53.254;10.400;2023-07-31T14:55:19;1.40;;;1.40;;
934;SDS011;454;53.254;10.400;2023-07-31T14:57:46;1.37;;;1.37;;
934;SDS011;454;53.254;10.400;2023-07-31T15:00:13;0.90;;;0.90;;
934;SDS011;454;53.254;10.400;2023-07-31T15:02:40;3.07;;;2.00;;
934;SDS011;454;53.254;10.400;2023-07-31T15:05:08;0.87;;;0.87;;
934;SDS011;454;53.254;10.400;2023-07-31T15:07:34;1.10;;;1.10;;
934;SDS011;454;53.254;10.400;2023-07-31T15:10:03;0.87;;;0.87;;
934;SDS011;454;53.254;10.400;2023-07-31T15:12:30;1.37;;;1.37;;
934;SDS011;454;53.254;10.400;2023-07-31T15:14:57;1.13;;;1.13;;
934;SDS011;454;53.254;10.400;2023-07-31T15:17:24;1.13;;;1.13;;
934;SDS011;454;53.254;10.400;2023-07-31T15:19:50;1.17;;;1.17;;
934;SDS011;454;53.254;10.400;2023-07-31T15:22:17;1.33;;;1.33;;
934;SDS011;454;53.254;10.400;2023-07-31T15:24:44;1.93;;;1.83;;
934;SDS011;454;53.254;10.400;2023-07-31T15:27:12;1.50;;;1.50;;
934;SDS011;454;53.254;10.400;2023-07-31T15:29:38;1.77;;;1.77;;
934;SDS011;454;53.254;10.400;2023-07-31T15:32:05;2.23;;;2.20;;
934;SDS011;454;53.254;10.400;2023-07-31T15:34:33;1.30;;;1.30;;
934;SDS011;454;53.254;10.400;2023-07-31T15:36:59;1.10;;;1.10;;
934;SDS011;454;53.254;10.400;2023-07-31T15:39:26;1.67;;;1.67;;
934;SDS011;454;53.254;10.400;2023-07-31T15:41:53;2.10;;;1.90;;
934;SDS011;454;53.254;10.400;2023-07-31T15:44:21;2.00;;;1.90;;
934;SDS011;454;53.254;10.400;2023-07-31T15:46:47;1.60;;;1.50;;
934;SDS011;454;53.254;10.400;2023-07-31T15:49:14;1.40;;;1.40;;
934;SDS011;454;53.254;10.400;2023-07-31T15:51:41;2.63;;;1.60;;
934;SDS011;454;53.254;10.400;2023-07-31T15:54:07;2.03;;;1.93;;
934;SDS011;454;53.254;10.400;2023-07-31T15:56:34;2.03;;;1.53;;
934;SDS011;454;53.254;10.400;2023-07-31T15:59:01;1.30;;;1.20;;
934;SDS011;454;53.254;10.400;2023-07-31T16:01:29;2.30;;;2.27;;
934;SDS011;454;53.254;10.400;2023-07-31T16:03:54;2.00;;;2.00;;
934;SDS011;454;53.254;10.400;2023-07-31T16:06:21;1.13;;;1.13;;
934;SDS011;454;53.254;10.400;2023-07-31T16:08:48;1.63;;;1.53;;
934;SDS011;454;53.254;10.400;2023-07-31T16:11:15;1.17;;;1.17;;
934;SDS011;454;53.254;10.400;2023-07-31T16:13:41;1.90;;;1.90;;
934;SDS011;454;53.254;10.400;2023-07-31T16:16:08;1.87;;;1.77;;
934;SDS011;454;53.254;10.400;2023-07-31T16:18:36;1.30;;;1.30;;
934;SDS011;454;53.254;10.400;2023-07-31T16:21:03;1.50;;;1.50;;
934;SDS011;454;53.254;10.400;2023-07-31T16:23:29;2.77;;;1.60;;
934;SDS011;454;53.254;10.400;2023-07-31T16:25:56;1.50;;;1.50;;
934;SDS011;454;53.254;10.400;2023-07-31T16:28:23;1.27;;;1.27;;
934;SDS011;454;53.254;10.400;2023-07-31T16:30:49;1.63;;;1.63;;
934;SDS011;454;53.254;10.400;2023-07-31T16:33:16;2.10;;;2.10;;
934;SDS011;454;53.254;10.400;2023-07-31T16:35:44;1.80;;;1.73;;
934;SDS011;454;53.254;10.400;2023-07-31T16:38:11;1.67;;;1.67;;
934;SDS011;454;53.254;10.400;2023-07-31T16:40:38;2.60;;;2.60;;
934;SDS011;454;53.254;10.400;2023-07-31T16:43:04;1.10;;;1.10;;
934;SDS011;454;53.254;10.400;2023-07-31T16:45:33;1.50;;;1.50;;
934;SDS011;454;53.254;10.400;2023-07-31T16:48:00;1.97;;;1.97;;
934;SDS011;454;53.254;10.400;2023-07-31T16:50:27;1.83;;;1.73;;
934;SDS011;454;53.254;10.400;2023-07-31T16:52:55;1.70;;;1.70;;
934;SDS011;454;53.254;10.400;2023-07-31T16:55:22;1.60;;;1.60;;
934;SDS011;454;53.254;10.400;2023-07-31T16:57:48;1.87;;;1.83;;
934;SDS011;454;53.254;10.400;2023-07-31T17:00:15;1.93;;;1.87;;
934;SDS011;454;53.254;10.400;2023-07-31T17:02:42;2.23;;;2.10;;
934;SDS011;454;53.254;10.400;2023-07-31T17:05:09;2.40;;;2.30;;
934;SDS011;454;53.254;10.400;2023-07-31T17:07:35;1.47;;;1.47;;
934;SDS011;454;53.254;10.400;2023-07-31T17:10:03;2.13;;;2.03;;
934;SDS011;454;53.254;10.400;2023-07-31T17:12:31;1.53;;;1.53;;
934;SDS011;454;53.254;10.400;2023-07-31T17:14:57;1.60;;;1.50;;
934;SDS011;454;53.254;10.400;2023-07-31T17:17:24;2.03;;;2.00;;
934;SDS011;454;53.254;10.400;2023-07-31T17:19:51;2.07;;;2.07;;
934;SDS011;454;53.254;10.400;2023-07-31T17:22:18;2.17;;;2.07;;
934;SDS011;454;53.254;10.400;2023-07-31T17:24:45;2.17;;;2.17;;
934;SDS011;454;53.254;10.400;2023-07-31T17:27:13;1.97;;;1.87;;
934;SDS011;454;53.254;10.400;2023-07-31T17:29:39;1.90;;;1.87;;
934;SDS011;454;53.254;10.400;2023-07-31T17:32:06;2.10;;;2.00;;
934;SDS011;454;53.254;10.400;2023-07-31T17:34:33;3.03;;;2.83;;
934;SDS011;454;53.254;10.400;2023-07-31T17:37:00;2.47;;;2.30;;
934;SDS011;454;53.254;10.400;2023-07-31T17:39:26;1.70;;;1.70;;
934;SDS011;454;53.254;10.400;2023-07-31T17:41:53;2.60;;;2.50;;
934;SDS011;454;53.254;10.400;2023-07-31T17:44:21;2.43;;;1.97;;
934;SDS011;454;53.254;10.400;2023-07-31T17:46:48;1.70;;;1.70;;
934;SDS011;454;53.254;10.400;2023-07-31T17:49:16;2.17;;;2.07;;
934;SDS011;454;53.254;10.400;2023-07-31T17:51:43;2.10;;;2.03;;
934;SDS011;454;53.254;10.400;2023-07-31T17:54:10;2.60;;;2.50;;
934;SDS011;454;53.254;10.400;2023-07-31T17:56:37;1.90;;;1.80;;
934;SDS011;454;53.254;10.400;2023-07-31T17:59:04;2.50;;;2.40;;
934;SDS011;454;53.254;10.400;2023-07-31T18:01:32;3.03;;;2.93;;
934;SDS011;454;53.254;10.400;2023-07-31T18:03:58;2.40;;;2.30;;
934;SDS011;454;53.254;10.400;2023-07-31T18:06:25;2.13;;;1.93;;
934;SDS011;454;53.254;10.400;2023-07-31T18:08:52;2.30;;;2.20;;
934;SDS011;454;53.254;10.400;2023-07-31T18:11:18;2.40;;;2.20;;
934;SDS011;454;53.254;10.400;2023-07-31T18:13:46;3.47;;;3.17;;
934;SDS011;454;53.254;10.400;2023-07-31T18:16:13;2.40;;;2.37;;
934;SDS011;454;53.254;10.400;2023-07-31T18:18:41;2.67;;;2.57;;
934;SDS011;454;53.254;10.400;2023-07-31T18:21:08;2.47;;;2.37;;
934;SDS011;454;53.254;10.400;2023-07-31T18:23:34;3.20;;;2.77;;
934;SDS011;454;53.254;10.400;2023-07-31T18:26:01;4.80;;;3.07;;
934;SDS011;454;53.254;10.400;2023-07-31T18:28:28;1.90;;;1.90;;
934;SDS011;454;53.254;10.400;2023-07-31T18:30:58;2.03;;;1.97;;
934;SDS011;454;53.254;10.400;2023-07-31T18:33:26;3.20;;;3.00;;
934;SDS011;454;53.254;10.400;2023-07-31T18:35:54;3.53;;;2.97;;
934;SDS011;454;53.254;10.400;2023-07-31T18:38:21;4.10;;;3.43;;
934;SDS011;454;53.254;10.400;2023-07-31T18:40:47;3.10;;;2.90;;
934;SDS011;454;53.254;10.400;2023-07-31T18:43:14;3.07;;;2.87;;
934;SDS011;454;53.254;10.400;2023-07-31T18:45:41;2.87;;;2.67;;
934;SDS011;454;53.254;10.400;2023-07-31T18:48:07;2.47;;;2.27;;
934;SDS011;454;53.254;10.400;2023-07-31T18:50:39;2.80;;;2.70;;
934;SDS011;454;53.254;10.400;2023-07-31T18:53:08;2.17;;;2.07;;
934;SDS011;454;53.254;10.400;2023-07-31T18:55:35;5.33;;;4.87;;
934;SDS011;454;53.254;10.400;2023-07-31T18:58:01;3.93;;;3.73;;
934;SDS011;454;53.254;10.400;2023-07-31T19:00:28;3.50;;;3.30;;
934;SDS011;454;53.254;10.400;2023-07-31T19:02:55;1.87;;;1.87;;
934;SDS011;454;53.254;10.400;2023-07-31T19:05:21;4.43;;;2.97;;
934;SDS011;454;53.254;10.400;2023-07-31T19:07:48;3.33;;;2.70;;
934;SDS011;454;53.254;10.400;2023-07-31T19:10:16;3.27;;;3.17;;
934;SDS011;454;53.254;10.400;2023-07-31T19:12:43;3.27;;;3.00;;
934;SDS011;454;53.254;10.400;2023-07-31T19:15:10;3.27;;;3.00;;
934;SDS011;454;53.254;10.400;2023-07-31T19:17:37;4.00;;;2.90;;
934;SDS011;454;53.254;10.400;2023-07-31T19:20:05;4.97;;;4.57;;
934;SDS011;454;53.254;10.400;2023-07-31T19:22:32;2.27;;;2.03;;
934;SDS011;454;53.254;10.400;2023-07-31T19:24:59;3.40;;;3.23;;
934;SDS011;454;53.254;10.400;2023-07-31T19:27:27;4.43;;;3.07;;
934;SDS011;454;53.254;10.400;2023-07-31T19:29:54;4.10;;;3.90;;
934;SDS011;454;53.254;10.400;2023-07-31T19:32:20;3.00;;;2.90;;
934;SDS011;454;53.254;10.400;2023-07-31T19:34:47;4.33;;;4.00;;
934;SDS011;454;53.254;10.400;2023-07-31T19:37:14;3.30;;;3.10;;
934;SDS011;454;53.254;10.400;2023-07-31T19:39:41;3.97;;;3.70;;
934;SDS011;454;53.254;10.400;2023-07-31T19:42:08;3.43;;;3.20;;
934;SDS011;454;53.254;10.400;2023-07-31T19:44:36;12.03;;;4.60;;
934;SDS011;454;53.254;10.400;2023-07-31T19:47:03;4.37;;;3.70;;